Погода Волочагинона неделю

Тверская область, Россия

22 - 28 мая
  • 22мая
    Сегодня
    +7°
    +22°
    Ясно и безоблачно
    ВремяПогодаТемператураВлажностьДавлениеВетер, м/сВероятность осадков
    00:00Ясно и безоблачно+11°C59 %747 мм2.2 м/с2 %
    03:00Ясно и безоблачно+9°C61 %747 мм3.2 м/с2 %
    06:00Ясно и безоблачно+10°C63 %748 мм3.2 м/с2 %
    09:00Ясно и безоблачно+17°C54 %749 мм3.0 м/с2 %
    12:00Ясно и безоблачно+21°C39 %749 мм3.9 м/с2 %
    15:00Ясно и безоблачно+22°C36 %749 мм3.8 м/с2 %
    18:00Ясно и безоблачно+21°C38 %749 мм3.4 м/с2 %
    21:00Ясно и безоблачно+16°C54 %749 мм2.8 м/с2 %
  • 23мая
    Четверг
    +6°
    +20°
    Ясно и безоблачно
    ВремяПогодаТемператураВлажностьДавлениеВетер, м/сВероятность осадков
    00:00Ясно и безоблачно+11°C54 %750 мм3.7 м/с2 %
    03:00Ясно и безоблачно+8°C62 %751 мм3.1 м/с2 %
    06:00Ясно и безоблачно+9°C65 %752 мм3.1 м/с2 %
    09:00Ясно и безоблачно+16°C51 %753 мм3.0 м/с2 %
    12:00Ясно и безоблачно+20°C37 %753 мм4.3 м/с2 %
    15:00Ясно и безоблачно+19°C37 %753 мм4.0 м/с2 %
    18:00Ясно и безоблачно+19°C39 %753 мм2.8 м/с2 %
    21:00Ясно и безоблачно+15°C49 %753 мм3.3 м/с2 %
  • 24мая
    Пятница
    +5°
    +21°
    Ясно и безоблачно
    ВремяПогодаТемператураВлажностьДавлениеВетер, м/сВероятность осадков
    00:00Ясно и безоблачно+10°C63 %754 мм2.6 м/с2 %
    03:00Ясно и безоблачно+8°C64 %755 мм2.2 м/с2 %
    06:00Ясно и безоблачно+8°C68 %756 мм1.9 м/с2 %
    09:00Ясно и безоблачно+15°C46 %757 мм2.3 м/с2 %
    12:00Ясно и безоблачно+19°C38 %757 мм3.6 м/с2 %
    15:00Ясно и безоблачно+20°C38 %756 мм3.5 м/с2 %
    18:00Ясно и безоблачно+20°C37 %755 мм3.1 м/с2 %
    21:00Ясно и безоблачно+14°C53 %755 мм2.6 м/с2 %
  • 25мая
    Суббота
    +9°
    +23°
    Ясно и безоблачно
    ВремяПогодаТемператураВлажностьДавлениеВетер, м/сВероятность осадков
    00:00Ясно и безоблачно+9°C60 %755 мм2.9 м/с2 %
    03:00Ясно и безоблачно+6°C72 %755 мм2.3 м/с2 %
    06:00Ясно и безоблачно+7°C76 %754 мм2.5 м/с2 %
    09:00Практически безоблачно+15°C58 %754 мм2.3 м/с2 %
    12:00Практически безоблачно+20°C46 %754 мм2.7 м/с2 %
    15:00Ясно и безоблачно+22°C41 %753 мм3.1 м/с2 %
    18:00Ясно и безоблачно+23°C43 %751 мм2.7 м/с2 %
    21:00Ясно и безоблачно+17°C64 %751 мм2.3 м/с2 %
  • 26мая
    Воскресенье
    +9°
    +25°
    Ясно и безоблачно
    ВремяПогодаТемператураВлажностьДавлениеВетер, м/сВероятность осадков
    00:00Ясно и безоблачно+12°C71 %751 мм2.7 м/с2 %
    03:00Ясно и безоблачно+9°C78 %751 мм2.2 м/с2 %
    06:00Ясно и безоблачно+11°C77 %751 мм2.3 м/с2 %
    09:00Ясно и безоблачно+18°C60 %751 мм1.8 м/с4 %
    12:00Ясно и безоблачно+23°C43 %751 мм2.1 м/с9 %
    15:00Ясно и безоблачно+24°C38 %751 мм1.7 м/с15 %
    18:00Ясно и безоблачно+24°C41 %750 мм1.2 м/с25 %
    21:00Ясно и безоблачно+18°C63 %750 мм2.1 м/с14 %
Мы используем cookies
Соглашаюсь